createdAt,value
2023-01-29T00:00:02.871Z,11.18
2023-01-29T00:05:25.415Z,10.55
2023-01-29T00:10:28.509Z,14.38
2023-01-29T00:15:30.567Z,1.98
2023-01-29T00:20:32.686Z,6.95
2023-01-29T00:25:34.638Z,7.32
2023-01-29T00:30:37.532Z,10.88
2023-01-29T00:35:40.278Z,15.45
2023-01-29T00:41:00.579Z,12.00
2023-01-29T00:46:02.592Z,6.60
2023-01-29T00:51:04.732Z,13.23
2023-01-29T00:56:07.164Z,7.53
2023-01-29T01:01:09.193Z,9.88
2023-01-29T01:06:11.569Z,11.27
2023-01-29T01:11:13.606Z,10.52
2023-01-29T01:16:18.985Z,10.23
2023-01-29T01:21:21.047Z,5.45
2023-01-29T01:26:23.130Z,7.45
2023-01-29T01:31:25.493Z,10.35
2023-01-29T01:36:27.539Z,6.88
2023-01-29T01:41:30.664Z,4.40
2023-01-29T01:51:41.178Z,6.22
2023-01-29T01:56:48.393Z,4.97
2023-01-29T02:07:20.167Z,5.93
2023-01-29T02:12:23.484Z,9.18
2023-01-29T02:17:25.665Z,3.13
2023-01-29T02:22:55.632Z,13.88
2023-01-29T02:28:21.778Z,4.78
2023-01-29T02:33:32.342Z,10.00
2023-01-29T02:38:40.483Z,4.97
2023-01-29T02:43:56.450Z,9.20
2023-01-29T02:49:07.325Z,7.97
2023-01-29T02:54:25.103Z,9.43
2023-01-29T02:59:43.744Z,6.03
2023-01-29T03:04:51.815Z,16.58
2023-01-29T03:09:55.324Z,5.75
2023-01-29T03:15:12.416Z,7.20
2023-01-29T03:20:20.082Z,7.85
2023-01-29T03:25:45.786Z,7.07
2023-01-29T03:31:13.744Z,6.60
2023-01-29T03:36:23.362Z,12.23
2023-01-29T03:41:39.007Z,10.57
2023-01-29T03:46:56.610Z,6.50
2023-01-29T03:52:10.826Z,9.77
2023-01-29T03:57:15.774Z,9.70
2023-01-29T04:02:28.144Z,11.48
2023-01-29T04:07:33.773Z,10.40
2023-01-29T04:12:49.593Z,7.65
2023-01-29T04:17:53.456Z,19.58
2023-01-29T04:22:55.563Z,7.18
2023-01-29T04:28:28.859Z,12.73
2023-01-29T04:33:49.369Z,9.00
2023-01-29T04:39:11.666Z,9.05
2023-01-29T04:44:40.538Z,19.33
2023-01-29T04:50:11.676Z,8.75
2023-01-29T04:55:29.090Z,12.23
2023-01-29T05:00:36.153Z,5.38
2023-01-29T05:05:41.988Z,7.18
2023-01-29T05:10:46.018Z,16.98
2023-01-29T05:15:58.000Z,17.73
2023-01-29T05:21:06.713Z,10.35
2023-01-29T05:26:08.688Z,14.07
2023-01-29T05:31:10.800Z,7.97
2023-01-29T05:36:12.865Z,5.82
2023-01-29T05:41:16.680Z,14.13
2023-01-29T05:46:19.180Z,12.43
2023-01-29T05:51:21.291Z,11.20
2023-01-29T05:56:23.488Z,5.90
2023-01-29T06:01:26.451Z,7.60
2023-01-29T06:06:28.467Z,5.43
2023-01-29T06:11:30.468Z,11.35
2023-01-29T06:16:32.563Z,6.75
2023-01-29T06:21:34.673Z,10.30
2023-01-29T06:26:36.812Z,6.75
2023-01-29T06:31:39.709Z,9.38
2023-01-29T06:36:42.211Z,11.70
2023-01-29T06:41:45.657Z,8.48
2023-01-29T06:46:47.662Z,12.10
2023-01-29T06:51:50.031Z,10.38
2023-01-29T06:56:52.639Z,14.38
2023-01-29T07:01:54.743Z,10.25
2023-01-29T07:06:56.847Z,11.43
2023-01-29T07:11:58.833Z,8.40
2023-01-29T07:17:00.966Z,7.22
2023-01-29T07:22:04.228Z,5.13
2023-01-29T07:32:08.360Z,9.60
2023-01-29T07:37:10.407Z,1.85
2023-01-29T07:42:12.410Z,10.77
2023-01-29T07:47:16.375Z,12.27
2023-01-29T07:52:21.917Z,6.60
2023-01-29T07:57:24.991Z,7.60
2023-01-29T08:02:27.036Z,20.63
2023-01-29T08:07:29.412Z,12.50
2023-01-29T08:12:31.487Z,10.18
2023-01-29T08:17:33.634Z,1.42
2023-01-29T08:22:35.622Z,4.10
2023-01-29T08:27:38.057Z,11.57
2023-01-29T08:32:40.217Z,39.58
2023-01-29T08:37:42.345Z,34.22
2023-01-29T08:42:44.456Z,30.75
2023-01-29T08:47:50.434Z,32.45
2023-01-29T08:52:57.458Z,42.50
2023-01-29T08:57:59.526Z,16.45
2023-01-29T09:03:01.745Z,18.45
2023-01-29T09:08:04.439Z,15.45
2023-01-29T09:13:06.537Z,21.98
2023-01-29T09:18:08.750Z,15.85
2023-01-29T09:23:11.851Z,29.83
2023-01-29T09:28:15.136Z,71.57
2023-01-29T09:33:17.375Z,36.13
2023-01-29T09:38:21.375Z,16.75
2023-01-29T09:43:46.092Z,33.20
2023-01-29T09:48:57.913Z,46.13
2023-01-29T09:54:14.848Z,59.40
2023-01-29T09:59:21.300Z,15.10
2023-01-29T10:04:45.519Z,35.47
2023-01-29T10:10:00.774Z,52.13
2023-01-29T10:15:03.250Z,35.72
2023-01-29T10:20:16.009Z,10.52
2023-01-29T10:25:22.185Z,15.05
2023-01-29T10:30:33.597Z,12.57
2023-01-29T10:35:54.682Z,12.77
2023-01-29T10:41:16.243Z,15.23
2023-01-29T10:46:32.472Z,10.85
2023-01-29T10:51:50.077Z,14.40
2023-01-29T10:57:04.489Z,13.82
2023-01-29T11:02:19.209Z,17.70
2023-01-29T11:07:23.263Z,15.23
2023-01-29T11:12:31.003Z,19.80
2023-01-29T11:17:33.316Z,15.18
2023-01-29T11:22:35.687Z,18.05
2023-01-29T11:27:46.511Z,16.30
2023-01-29T11:33:26.651Z,7.82
2023-01-29T11:38:30.082Z,15.30
2023-01-29T11:43:33.464Z,10.63
2023-01-29T11:48:46.470Z,12.20
2023-01-29T11:53:58.699Z,14.90
2023-01-29T11:59:04.830Z,19.00
2023-01-29T12:04:33.417Z,12.27
2023-01-29T12:09:36.857Z,11.10
2023-01-29T12:14:39.582Z,11.68
2023-01-29T12:19:57.603Z,11.68
2023-01-29T12:25:27.487Z,11.02
2023-01-29T12:30:39.926Z,16.73
2023-01-29T12:35:50.856Z,20.75
2023-01-29T12:41:01.313Z,12.27
2023-01-29T12:46:07.179Z,17.85
2023-01-29T12:51:18.199Z,11.07
2023-01-29T12:56:47.842Z,15.20
2023-01-29T13:02:17.169Z,18.10
2023-01-29T13:07:24.042Z,22.35
2023-01-29T13:12:27.374Z,19.08
2023-01-29T13:17:46.553Z,11.13
2023-01-29T13:22:50.858Z,19.55
2023-01-29T13:27:54.347Z,22.15
2023-01-29T13:33:19.659Z,23.40
2023-01-29T13:38:30.029Z,14.07
2023-01-29T13:43:39.321Z,16.98
2023-01-29T13:48:48.910Z,16.95
2023-01-29T13:54:09.407Z,18.70
2023-01-29T13:59:45.600Z,14.70
2023-01-29T14:04:48.291Z,12.30
2023-01-29T14:09:51.053Z,21.50
2023-01-29T14:20:27.675Z,26.00
2023-01-29T14:25:41.506Z,19.10
2023-01-29T14:30:49.471Z,20.65
2023-01-29T14:35:53.611Z,15.32
2023-01-29T14:41:13.397Z,20.67
2023-01-29T14:46:34.005Z,8.95
2023-01-29T14:51:40.878Z,17.17
2023-01-29T14:57:02.289Z,13.02
2023-01-29T15:02:42.182Z,10.95
2023-01-29T15:07:58.948Z,13.45
2023-01-29T15:13:08.914Z,23.65
2023-01-29T15:18:20.428Z,12.13
2023-01-29T15:23:32.637Z,16.40
2023-01-29T15:28:36.501Z,24.65
2023-01-29T15:33:43.341Z,16.98
2023-01-29T15:38:45.585Z,22.77
2023-01-29T15:43:50.492Z,22.88
2023-01-29T15:48:54.951Z,19.95
2023-01-29T15:54:01.157Z,32.05
2023-01-29T15:59:09.799Z,21.92
2023-01-29T16:04:18.905Z,29.92
2023-01-29T16:14:29.201Z,17.05
2023-01-29T16:19:31.840Z,25.10
2023-01-29T16:24:38.782Z,12.40
2023-01-29T16:29:42.262Z,20.02
2023-01-29T16:34:48.911Z,28.42
2023-01-29T16:39:56.162Z,12.05
2023-01-29T16:45:05.907Z,18.67
2023-01-29T16:50:25.628Z,12.10
2023-01-29T16:55:36.382Z,15.95
2023-01-29T17:00:46.431Z,7.30
2023-01-29T17:05:51.685Z,14.35
2023-01-29T17:10:55.029Z,34.85
2023-01-29T17:16:05.618Z,26.65
2023-01-29T17:21:09.339Z,15.93
2023-01-29T17:26:15.645Z,12.05
2023-01-29T17:31:19.141Z,22.27
2023-01-29T17:36:25.718Z,17.92
2023-01-29T17:41:31.600Z,29.25
2023-01-29T17:46:34.300Z,24.70
2023-01-29T17:51:39.719Z,23.65
2023-01-29T17:56:46.420Z,38.47
2023-01-29T18:01:51.116Z,21.27
2023-01-29T18:06:55.071Z,8.95
2023-01-29T18:11:59.316Z,16.27
2023-01-29T18:17:01.944Z,24.80
2023-01-29T18:22:05.340Z,13.93
2023-01-29T18:27:08.965Z,27.10
2023-01-29T18:32:13.155Z,18.85
2023-01-29T18:37:16.265Z,20.77
2023-01-29T18:42:19.274Z,22.25
2023-01-29T18:52:25.409Z,6.20
2023-01-29T18:58:26.830Z,13.27
2023-01-29T19:02:52.992Z,22.42
2023-01-29T19:07:56.040Z,22.10
2023-01-29T19:12:59.283Z,11.25
2023-01-29T19:18:02.878Z,14.45
2023-01-29T19:23:05.954Z,16.42
2023-01-29T19:33:14.874Z,14.18
2023-01-29T19:38:22.042Z,17.25
2023-01-29T19:43:27.652Z,14.85
2023-01-29T19:48:32.395Z,22.48
2023-01-29T19:53:37.802Z,21.65
2023-01-29T19:58:41.571Z,23.75
2023-01-29T20:03:49.496Z,18.92
2023-01-29T20:08:53.159Z,16.17
2023-01-29T20:13:56.990Z,22.55
2023-01-29T20:19:14.387Z,17.40
2023-01-29T20:24:18.312Z,22.05
2023-01-29T20:29:21.876Z,19.05
2023-01-29T20:34:25.075Z,17.15
2023-01-29T20:39:31.005Z,23.00
2023-01-29T20:44:34.019Z,20.48
2023-01-29T20:49:37.277Z,23.38
2023-01-29T20:54:40.851Z,34.05
2023-01-29T20:59:45.892Z,22.17
2023-01-29T21:04:48.657Z,19.77
2023-01-29T21:09:51.771Z,22.10
2023-01-29T21:14:54.591Z,33.17
2023-01-29T21:19:58.106Z,24.00
2023-01-29T21:25:00.854Z,30.55
2023-01-29T21:30:05.737Z,18.75
2023-01-29T21:35:08.724Z,41.08
2023-01-29T21:40:12.080Z,33.58
2023-01-29T21:45:14.493Z,37.22
2023-01-29T21:50:17.705Z,34.85
2023-01-29T21:55:20.210Z,38.63
2023-01-29T22:00:22.999Z,34.10
2023-01-29T22:05:25.345Z,28.23
2023-01-29T22:10:27.922Z,33.90
2023-01-29T22:15:30.036Z,24.20
2023-01-29T22:20:32.156Z,28.77
2023-01-29T22:25:34.468Z,37.28
2023-01-29T22:30:36.718Z,44.70
2023-01-29T22:35:39.180Z,34.60
2023-01-29T22:40:41.211Z,37.22
2023-01-29T22:45:43.311Z,35.13
2023-01-29T22:50:54.039Z,34.13
2023-01-29T22:55:56.095Z,27.15
2023-01-29T23:00:58.310Z,25.27
2023-01-29T23:06:00.584Z,27.65
2023-01-29T23:11:16.150Z,32.88
2023-01-29T23:16:19.542Z,20.92
2023-01-29T23:21:25.300Z,23.02
2023-01-29T23:26:47.490Z,31.33
2023-01-29T23:31:49.579Z,32.15
2023-01-29T23:36:51.751Z,30.63
2023-01-29T23:41:53.727Z,24.73
2023-01-29T23:46:55.958Z,27.65
2023-01-29T23:51:58.147Z,25.17
2023-01-29T23:57:00.175Z,26.35
